createdAt,value
2023-03-16T00:01:49.080Z,2.50
2023-03-16T00:05:50.729Z,2.60
2023-03-16T00:09:49.045Z,3.10
2023-03-16T00:13:49.012Z,3.10
2023-03-16T00:17:49.176Z,2.60
2023-03-16T00:21:49.294Z,2.90
2023-03-16T00:25:49.127Z,2.60
2023-03-16T00:29:54.633Z,2.70
2023-03-16T00:33:49.082Z,2.90
2023-03-16T00:37:49.293Z,2.90
2023-03-16T00:45:49.264Z,2.90
2023-03-16T00:49:49.665Z,3.10
2023-03-16T00:53:49.309Z,2.90
2023-03-16T00:57:49.060Z,2.60
2023-03-16T01:01:49.418Z,2.80
2023-03-16T01:05:49.175Z,2.80
2023-03-16T01:09:49.235Z,2.80
2023-03-16T01:13:53.288Z,2.70
2023-03-16T01:25:53.094Z,3.00
2023-03-16T01:29:49.164Z,3.30
2023-03-16T01:33:49.252Z,3.30
2023-03-16T01:37:49.219Z,3.90
2023-03-16T01:41:49.853Z,3.70
2023-03-16T01:46:09.161Z,3.80
2023-03-16T01:49:54.106Z,3.90
2023-03-16T01:53:52.213Z,3.50
2023-03-16T01:57:49.327Z,3.60
2023-03-16T02:01:50.875Z,3.30
2023-03-16T02:05:54.006Z,3.50
2023-03-16T02:09:52.390Z,3.40
2023-03-16T02:13:49.653Z,3.60
2023-03-16T02:17:50.313Z,3.50
2023-03-16T02:21:57.773Z,3.60
2023-03-16T02:25:56.642Z,3.50
2023-03-16T02:29:55.576Z,3.70
2023-03-16T02:33:51.244Z,3.00
2023-03-16T02:37:51.554Z,3.40
2023-03-16T02:41:49.970Z,3.60
2023-03-16T02:45:52.618Z,3.60
2023-03-16T02:49:49.807Z,3.70
2023-03-16T02:53:49.598Z,4.20
2023-03-16T02:57:49.435Z,3.80
2023-03-16T03:01:50.543Z,3.70
2023-03-16T03:05:49.693Z,3.80
2023-03-16T03:09:52.603Z,3.70
2023-03-16T03:13:49.812Z,4.30
2023-03-16T03:21:50.937Z,3.50
2023-03-16T03:25:49.562Z,3.80
2023-03-16T03:33:49.518Z,3.60
2023-03-16T03:37:49.721Z,3.60
2023-03-16T03:41:53.508Z,3.50
2023-03-16T03:45:55.935Z,3.50
2023-03-16T03:49:49.603Z,3.80
2023-03-16T03:53:50.407Z,3.60
2023-03-16T03:57:50.004Z,3.70
2023-03-16T04:01:52.735Z,3.30
2023-03-16T04:09:50.687Z,3.40
2023-03-16T04:13:50.879Z,3.40
2023-03-16T04:17:51.633Z,3.10
2023-03-16T04:21:49.813Z,3.40
2023-03-16T04:25:50.850Z,2.70
2023-03-16T04:29:49.652Z,2.70
2023-03-16T04:33:53.652Z,2.70
2023-03-16T04:37:50.025Z,2.50
2023-03-16T04:41:50.530Z,2.40
2023-03-16T04:45:49.879Z,2.50
2023-03-16T04:53:50.490Z,2.60
2023-03-16T04:57:51.473Z,2.60
2023-03-16T05:01:49.921Z,2.40
2023-03-16T05:05:50.427Z,2.40
2023-03-16T05:09:49.856Z,2.40
2023-03-16T05:17:50.521Z,2.70
2023-03-16T05:21:49.780Z,2.20
2023-03-16T05:25:49.914Z,2.40
2023-03-16T05:29:49.863Z,2.70
2023-03-16T05:33:49.936Z,2.80
2023-03-16T05:37:49.875Z,1.90
2023-03-16T05:45:50.612Z,2.60
2023-03-16T05:49:49.900Z,2.50
2023-03-16T05:53:50.060Z,2.70
2023-03-16T05:57:50.172Z,3.20
2023-03-16T06:01:49.942Z,3.40
2023-03-16T06:05:50.028Z,2.50
2023-03-16T06:09:49.987Z,2.70
2023-03-16T06:17:50.644Z,2.80
2023-03-16T06:21:50.039Z,3.00
2023-03-16T06:25:50.507Z,2.90
2023-03-16T06:37:50.630Z,3.20
2023-03-16T06:41:50.238Z,3.50
2023-03-16T06:45:50.251Z,3.70
2023-03-16T06:53:50.340Z,3.30
2023-03-16T06:57:50.835Z,3.90
2023-03-16T07:01:50.506Z,3.40
2023-03-16T07:05:50.135Z,3.10
2023-03-16T07:09:50.691Z,3.20
2023-03-16T07:13:50.755Z,3.20
2023-03-16T07:17:51.571Z,3.00
2023-03-16T07:21:50.658Z,2.90
2023-03-16T07:25:51.179Z,3.20
2023-03-16T07:29:51.302Z,3.00
2023-03-16T07:33:51.136Z,3.30
2023-03-16T07:41:50.486Z,2.80
2023-03-16T07:45:51.571Z,2.50
2023-03-16T07:53:50.430Z,2.60
2023-03-16T07:57:50.381Z,2.90
2023-03-16T08:01:50.469Z,2.70
2023-03-16T08:05:50.460Z,2.60
2023-03-16T08:22:01.268Z,2.80
2023-03-16T08:29:51.601Z,2.40
2023-03-16T08:33:50.833Z,2.50
2023-03-16T08:37:50.612Z,2.60
2023-03-16T08:41:51.160Z,2.30
2023-03-16T08:45:51.513Z,2.20
2023-03-16T08:49:51.231Z,2.10
2023-03-16T08:53:50.889Z,2.60
2023-03-16T08:57:50.386Z,2.50
2023-03-16T09:01:50.601Z,2.10
2023-03-16T09:05:50.583Z,2.10
2023-03-16T09:09:51.730Z,1.70
2023-03-16T09:13:52.809Z,2.40
2023-03-16T09:17:50.913Z,2.10
2023-03-16T09:25:50.990Z,2.10
2023-03-16T09:29:52.052Z,1.80
2023-03-16T09:33:51.217Z,2.00
2023-03-16T09:38:05.243Z,2.10
2023-03-16T09:41:56.651Z,2.00
2023-03-16T09:45:58.774Z,1.90
2023-03-16T09:49:52.249Z,2.00
2023-03-16T09:53:57.118Z,2.10
2023-03-16T09:57:52.550Z,2.20
2023-03-16T10:02:04.837Z,2.40
2023-03-16T10:06:01.158Z,2.20
2023-03-16T10:09:56.505Z,2.00
2023-03-16T10:13:55.928Z,1.90
2023-03-16T10:17:55.566Z,2.10
2023-03-16T10:21:55.202Z,2.30
2023-03-16T10:25:52.717Z,2.30
2023-03-16T10:29:50.822Z,2.20
2023-03-16T10:33:57.444Z,2.10
2023-03-16T10:37:52.018Z,1.90
2023-03-16T10:41:56.148Z,2.60
2023-03-16T10:45:51.133Z,2.30
2023-03-16T10:49:50.884Z,2.00
2023-03-16T10:53:51.583Z,2.20
2023-03-16T10:57:54.072Z,2.50
2023-03-16T11:01:51.298Z,2.30
2023-03-16T11:05:59.772Z,2.30
2023-03-16T11:09:51.611Z,2.50
2023-03-16T11:13:55.691Z,2.40
2023-03-16T11:17:52.460Z,2.30
2023-03-16T11:21:56.568Z,2.60
2023-03-16T11:25:54.554Z,2.70
2023-03-16T11:30:00.834Z,2.20
2023-03-16T11:33:53.365Z,2.60
2023-03-16T11:38:07.428Z,2.40
2023-03-16T11:42:02.995Z,2.50
2023-03-16T11:46:06.843Z,2.00
2023-03-16T11:49:59.405Z,2.50
2023-03-16T11:54:02.365Z,2.00
2023-03-16T11:58:02.361Z,2.30
2023-03-16T12:02:01.328Z,1.90
2023-03-16T12:05:57.394Z,2.00
2023-03-16T12:10:01.804Z,2.50
2023-03-16T12:22:01.693Z,2.00
2023-03-16T12:25:52.500Z,2.00
2023-03-16T12:30:00.828Z,2.40
2023-03-16T12:34:01.187Z,2.20
2023-03-16T12:38:00.356Z,2.70
2023-03-16T12:45:58.447Z,1.90
2023-03-16T12:49:51.463Z,1.90
2023-03-16T12:53:54.452Z,2.10
2023-03-16T12:57:58.923Z,2.10
2023-03-16T13:05:54.549Z,2.00
2023-03-16T13:09:56.159Z,1.90
2023-03-16T13:14:02.551Z,2.30
2023-03-16T13:18:04.150Z,2.20
2023-03-16T13:22:00.666Z,2.10
2023-03-16T13:26:02.790Z,2.20
2023-03-16T13:29:54.049Z,2.30
2023-03-16T13:33:54.753Z,2.20
2023-03-16T13:37:53.138Z,1.90
2023-03-16T13:41:56.248Z,2.00
2023-03-16T13:45:51.759Z,2.00
2023-03-16T13:49:54.963Z,2.40
2023-03-16T13:53:52.619Z,2.00
2023-03-16T14:00:06.541Z,2.60
2023-03-16T14:04:12.534Z,1.90
2023-03-16T14:08:03.946Z,2.40
2023-03-16T14:12:02.767Z,2.20
2023-03-16T14:16:07.589Z,2.20
2023-03-16T14:20:03.262Z,2.70
2023-03-16T14:24:05.222Z,2.20
2023-03-16T14:28:06.510Z,2.70
2023-03-16T14:36:13.309Z,2.40
2023-03-16T14:40:05.009Z,2.90
2023-03-16T14:44:03.295Z,2.60
2023-03-16T14:48:05.896Z,2.50
2023-03-16T14:52:07.052Z,2.20
2023-03-16T14:56:02.877Z,2.40
2023-03-16T15:00:04.503Z,2.90
2023-03-16T15:04:03.162Z,2.50
2023-03-16T15:08:06.056Z,2.30
2023-03-16T15:12:03.088Z,2.40
2023-03-16T15:16:04.618Z,2.50
2023-03-16T15:20:04.298Z,2.60
2023-03-16T15:24:02.754Z,2.60
2023-03-16T15:28:09.213Z,2.40
2023-03-16T15:32:05.236Z,2.20
2023-03-16T15:36:12.514Z,2.90
2023-03-16T15:40:13.505Z,2.10
2023-03-16T15:48:03.080Z,2.60
2023-03-16T15:52:03.373Z,2.40
2023-03-16T15:56:05.475Z,2.40
2023-03-16T16:00:03.817Z,2.20
2023-03-16T16:04:03.378Z,2.20
2023-03-16T16:08:02.896Z,2.50
2023-03-16T16:12:02.885Z,2.40
2023-03-16T16:16:02.936Z,2.80
2023-03-16T16:20:16.498Z,2.70
2023-03-16T16:24:03.471Z,3.00
2023-03-16T16:28:05.789Z,2.60
2023-03-16T16:32:03.486Z,2.40
2023-03-16T16:36:05.389Z,2.10
2023-03-16T16:40:03.175Z,2.50
2023-03-16T16:44:07.274Z,2.40
2023-03-16T16:48:22.551Z,2.80
2023-03-16T16:52:03.270Z,2.30
2023-03-16T16:56:10.600Z,3.00
2023-03-16T17:00:04.203Z,2.50
2023-03-16T17:04:02.914Z,2.50
2023-03-16T17:08:03.323Z,2.40
2023-03-16T17:12:03.403Z,2.70
2023-03-16T17:16:03.185Z,2.80
2023-03-16T17:20:05.734Z,2.80
2023-03-16T17:24:03.759Z,2.70
2023-03-16T17:28:03.683Z,2.70
2023-03-16T17:32:15.448Z,2.30
2023-03-16T17:36:03.520Z,2.40
2023-03-16T17:40:03.434Z,2.90
2023-03-16T17:44:04.558Z,3.00
2023-03-16T17:48:09.741Z,2.60
2023-03-16T17:52:05.219Z,3.50
2023-03-16T17:56:14.178Z,2.90
2023-03-16T18:04:05.840Z,2.40
2023-03-16T18:12:03.319Z,2.50
2023-03-16T18:20:04.584Z,2.60
2023-03-16T18:24:13.267Z,2.60
2023-03-16T18:28:04.231Z,2.50
2023-03-16T18:32:04.005Z,2.40
2023-03-16T18:36:06.894Z,2.90
2023-03-16T18:40:03.644Z,2.70
2023-03-16T18:44:16.179Z,2.80
2023-03-16T18:48:03.289Z,2.80
2023-03-16T18:52:12.637Z,2.80
2023-03-16T18:56:03.590Z,3.00
2023-03-16T19:00:03.818Z,3.00
2023-03-16T19:04:03.222Z,3.30
2023-03-16T19:08:04.101Z,3.00
2023-03-16T19:12:03.959Z,2.60
2023-03-16T19:16:08.142Z,3.10
2023-03-16T19:20:03.363Z,2.70
2023-03-16T19:24:05.835Z,2.80
2023-03-16T19:28:05.417Z,3.10
2023-03-16T19:36:05.822Z,3.00
2023-03-16T19:40:04.306Z,2.50
2023-03-16T19:48:10.534Z,2.80
2023-03-16T19:52:05.352Z,5.40
2023-03-16T19:56:04.330Z,6.60
2023-03-16T20:00:05.554Z,4.60
2023-03-16T20:04:03.599Z,3.30
2023-03-16T20:08:16.170Z,2.80
2023-03-16T20:16:04.009Z,3.00
2023-03-16T20:20:15.344Z,2.80
2023-03-16T20:24:04.149Z,2.90
2023-03-16T20:27:10.547Z,3.90
2023-03-16T20:31:16.453Z,3.30
2023-03-16T20:35:12.768Z,3.10
2023-03-16T20:39:07.161Z,3.30
2023-03-16T20:43:23.038Z,3.20
2023-03-16T20:47:12.697Z,3.20
2023-03-16T20:51:12.773Z,3.10
2023-03-16T20:59:15.684Z,3.00
2023-03-16T21:03:15.859Z,2.90
2023-03-16T21:07:07.972Z,2.70
2023-03-16T21:11:18.880Z,3.30
2023-03-16T21:15:15.769Z,3.30
2023-03-16T21:23:12.181Z,3.60
2023-03-16T21:27:17.706Z,3.50
2023-03-16T21:31:07.463Z,3.20
2023-03-16T21:35:11.359Z,3.90
2023-03-16T21:39:17.544Z,6.30
2023-03-16T21:43:06.876Z,3.90
2023-03-16T21:47:20.314Z,3.50
2023-03-16T21:51:12.525Z,3.30
2023-03-16T21:55:23.011Z,3.40
2023-03-16T21:59:07.351Z,3.60
2023-03-16T22:03:20.797Z,3.30
2023-03-16T22:07:11.102Z,3.30
2023-03-16T22:15:07.884Z,3.20
2023-03-16T22:23:21.059Z,3.60
2023-03-16T22:31:12.458Z,3.30
2023-03-16T22:35:21.790Z,3.00
2023-03-16T22:39:11.956Z,3.30
2023-03-16T22:43:11.691Z,3.30
2023-03-16T22:47:19.339Z,3.40
2023-03-16T22:51:15.662Z,3.50
2023-03-16T22:55:13.893Z,3.50
2023-03-16T23:07:10.862Z,3.40
2023-03-16T23:11:11.655Z,3.00
2023-03-16T23:15:14.446Z,3.10
2023-03-16T23:23:07.277Z,3.30
2023-03-16T23:27:15.843Z,3.20
2023-03-16T23:31:09.068Z,3.70
2023-03-16T23:35:11.865Z,3.30
2023-03-16T23:43:08.192Z,4.00
2023-03-16T23:47:09.494Z,3.30
2023-03-16T23:51:20.308Z,4.20
2023-03-16T23:55:13.358Z,4.20
2023-03-16T23:59:07.340Z,3.60
